createdAt,value
2019-04-19T00:00:42.550Z,11.60
2019-04-19T00:03:10.765Z,15.33
2019-04-19T00:06:13.655Z,15.73
2019-04-19T00:08:54.111Z,15.60
2019-04-19T00:11:17.726Z,13.70
2019-04-19T00:13:32.936Z,14.00
2019-04-19T00:16:00.537Z,12.50
2019-04-19T00:18:28.259Z,12.50
2019-04-19T00:21:13.803Z,16.33
2019-04-19T00:23:33.135Z,13.27
2019-04-19T00:25:53.620Z,12.37
2019-04-19T00:28:31.883Z,12.33
2019-04-19T00:30:56.829Z,12.00
2019-04-19T00:33:26.084Z,11.90
2019-04-19T00:35:47.447Z,14.00
2019-04-19T00:38:26.529Z,12.83
2019-04-19T00:41:11.486Z,12.43
2019-04-19T00:44:06.924Z,14.30
2019-04-19T00:46:38.322Z,11.93
2019-04-19T00:49:05.556Z,11.90
2019-04-19T00:51:39.922Z,12.20
2019-04-19T00:54:00.346Z,14.43
2019-04-19T00:56:32.713Z,13.40
2019-04-19T00:58:53.298Z,11.70
2019-04-19T01:01:21.522Z,11.70
2019-04-19T01:03:48.710Z,11.20
2019-04-19T01:06:18.287Z,12.30
2019-04-19T01:08:56.372Z,12.33
2019-04-19T01:11:23.389Z,12.47
2019-04-19T01:13:56.235Z,11.60
2019-04-19T01:16:21.207Z,12.83
2019-04-19T01:18:47.291Z,12.90
2019-04-19T01:21:06.981Z,13.07
2019-04-19T01:23:40.799Z,12.50
2019-04-19T01:26:05.824Z,12.90
2019-04-19T01:28:32.520Z,14.97
2019-04-19T01:31:02.970Z,13.10
2019-04-19T01:33:34.529Z,11.93
2019-04-19T01:36:02.072Z,14.17
2019-04-19T01:38:32.530Z,12.80
2019-04-19T01:41:13.300Z,11.67
2019-04-19T01:43:48.869Z,11.47
2019-04-19T01:46:32.092Z,11.50
2019-04-19T01:48:53.565Z,12.27
2019-04-19T01:51:42.540Z,11.53
2019-04-19T01:54:24.788Z,12.50
2019-04-19T01:56:47.251Z,12.37
2019-04-19T01:59:07.858Z,12.23
2019-04-19T02:01:35.980Z,11.53
2019-04-19T02:04:06.355Z,12.30
2019-04-19T02:06:37.864Z,12.77
2019-04-19T02:09:01.975Z,12.70
2019-04-19T02:11:50.480Z,12.00
2019-04-19T02:14:15.420Z,13.23
2019-04-19T02:16:38.646Z,11.70
2019-04-19T02:19:11.720Z,12.83
2019-04-19T02:21:38.996Z,11.93
2019-04-19T02:24:05.116Z,13.00
2019-04-19T02:26:32.350Z,11.93
2019-04-19T02:29:07.505Z,12.77
2019-04-19T02:31:58.081Z,13.00
2019-04-19T02:34:28.786Z,14.23
2019-04-19T02:37:05.190Z,12.97
2019-04-19T02:41:58.037Z,13.83
2019-04-19T02:44:18.192Z,13.93
2019-04-19T02:47:08.832Z,13.43
2019-04-19T02:49:24.060Z,12.90
2019-04-19T02:51:50.131Z,12.80
2019-04-19T02:54:22.676Z,13.33
2019-04-19T02:57:31.414Z,13.30
2019-04-19T02:59:59.131Z,13.67
2019-04-19T03:02:38.355Z,12.30
2019-04-19T03:05:04.403Z,13.83
2019-04-19T03:06:56.115Z,13.33
2019-04-19T03:09:24.231Z,13.10
2019-04-19T03:12:02.214Z,12.53
2019-04-19T03:14:35.513Z,12.30
2019-04-19T03:17:07.290Z,12.47
2019-04-19T03:19:27.699Z,12.83
2019-04-19T03:21:56.012Z,13.30
2019-04-19T03:24:25.228Z,13.60
2019-04-19T03:26:54.084Z,12.63
2019-04-19T03:29:22.291Z,12.47
2019-04-19T03:32:17.777Z,12.10
2019-04-19T03:34:48.245Z,12.37
2019-04-19T03:36:50.721Z,13.10
2019-04-19T03:39:49.001Z,12.10
2019-04-19T03:42:06.134Z,12.80
2019-04-19T03:44:30.618Z,13.30
2019-04-19T03:49:40.034Z,12.17
2019-04-19T03:54:28.259Z,12.20
2019-04-19T03:56:55.043Z,12.30
2019-04-19T03:59:09.397Z,11.67
2019-04-19T04:01:42.331Z,12.17
2019-04-19T04:04:11.788Z,12.90
2019-04-19T04:06:37.072Z,12.03
2019-04-19T04:09:08.308Z,12.00
2019-04-19T04:11:51.972Z,12.60
2019-04-19T04:14:25.673Z,12.10
2019-04-19T04:16:58.383Z,12.83
2019-04-19T04:19:27.247Z,12.53
2019-04-19T04:21:55.610Z,12.87
2019-04-19T04:24:29.130Z,11.70
2019-04-19T04:27:00.148Z,11.80
2019-04-19T04:29:27.833Z,12.30
2019-04-19T04:32:03.321Z,11.57
2019-04-19T04:34:29.346Z,11.47
2019-04-19T04:37:05.294Z,11.53
2019-04-19T04:39:16.075Z,12.40
2019-04-19T04:41:46.022Z,12.30
2019-04-19T04:44:29.530Z,12.73
2019-04-19T04:47:19.279Z,11.47
2019-04-19T04:49:59.412Z,12.10
2019-04-19T04:52:32.522Z,11.00
2019-04-19T04:55:01.002Z,11.33
2019-04-19T04:57:39.521Z,10.93
2019-04-19T04:59:59.237Z,10.70
2019-04-19T05:02:42.731Z,11.73
2019-04-19T05:05:11.367Z,13.23
2019-04-19T05:07:39.259Z,11.53
2019-04-19T05:10:12.419Z,11.43
2019-04-19T05:13:01.216Z,11.83
2019-04-19T05:15:01.471Z,11.47
2019-04-19T05:20:06.659Z,10.67
2019-04-19T05:22:28.447Z,11.20
2019-04-19T05:25:14.737Z,11.07
2019-04-19T05:27:34.555Z,11.00
2019-04-19T05:29:44.943Z,11.00
2019-04-19T05:32:16.703Z,12.10
2019-04-19T05:34:55.944Z,11.57
2019-04-19T05:37:21.258Z,11.07
2019-04-19T05:40:07.938Z,11.13
2019-04-19T05:42:46.977Z,11.20
2019-04-19T05:47:40.621Z,12.23
2019-04-19T05:50:21.554Z,11.70
2019-04-19T05:52:42.561Z,11.60
2019-04-19T05:54:53.818Z,12.03
2019-04-19T05:57:40.188Z,11.80
2019-04-19T05:59:56.851Z,11.17
2019-04-19T06:02:26.390Z,13.70
2019-04-19T06:05:10.475Z,11.13
2019-04-19T06:07:31.297Z,11.43
2019-04-19T06:09:43.292Z,11.43
2019-04-19T06:12:19.246Z,10.63
2019-04-19T06:15:05.184Z,12.00
2019-04-19T06:17:43.681Z,11.90
2019-04-19T06:20:13.939Z,11.53
2019-04-19T06:22:38.562Z,11.97
2019-04-19T06:25:12.441Z,11.60
2019-04-19T06:27:53.235Z,13.60
2019-04-19T06:30:10.090Z,11.80
2019-04-19T06:32:40.649Z,11.63
2019-04-19T06:35:02.540Z,12.03
2019-04-19T06:37:21.009Z,12.10
2019-04-19T06:39:43.723Z,12.20
2019-04-19T06:42:13.567Z,11.80
2019-04-19T06:45:00.591Z,11.10
2019-04-19T06:47:16.307Z,12.43
2019-04-19T06:49:37.697Z,11.50
2019-04-19T06:52:11.902Z,12.60
2019-04-19T06:54:37.369Z,12.07
2019-04-19T06:57:12.076Z,11.60
2019-04-19T06:59:50.397Z,11.47
2019-04-19T07:01:59.637Z,11.00
2019-04-19T07:04:27.663Z,13.90
2019-04-19T07:07:15.797Z,11.90
2019-04-19T07:10:04.587Z,13.70
2019-04-19T07:12:16.958Z,11.63
2019-04-19T07:14:25.835Z,18.20
2019-04-19T07:17:05.567Z,12.40
2019-04-19T07:19:41.007Z,11.27
2019-04-19T07:21:59.533Z,10.83
2019-04-19T07:24:39.282Z,11.30
2019-04-19T07:27:04.312Z,10.67
2019-04-19T07:29:12.753Z,12.13
2019-04-19T07:31:40.171Z,11.90
2019-04-19T07:34:27.058Z,14.40
2019-04-19T07:36:57.659Z,12.77
2019-04-19T07:39:25.581Z,11.40
2019-04-19T07:41:54.208Z,12.70
2019-04-19T07:44:38.671Z,12.70
2019-04-19T07:47:41.643Z,18.67
2019-04-19T07:50:08.351Z,17.10
2019-04-19T07:52:40.227Z,11.30
2019-04-19T07:55:02.258Z,11.03
2019-04-19T08:00:21.179Z,11.27
2019-04-19T08:02:49.617Z,15.00
2019-04-19T08:10:09.051Z,11.67
2019-04-19T08:12:46.207Z,12.80
2019-04-19T08:15:17.060Z,21.00
2019-04-19T08:17:47.206Z,17.50
2019-04-19T08:27:16.661Z,11.50
2019-04-19T08:29:47.247Z,10.20
2019-04-19T08:32:10.816Z,10.23
2019-04-19T08:34:40.278Z,18.47
2019-04-19T08:37:16.485Z,17.50
2019-04-19T08:39:49.018Z,11.47
2019-04-19T08:42:28.610Z,12.60
2019-04-19T08:44:46.096Z,10.90
2019-04-19T08:47:31.141Z,10.90
2019-04-19T08:50:04.109Z,10.77
2019-04-19T08:52:33.697Z,12.27
2019-04-19T08:55:20.546Z,25.80
2019-04-19T08:57:30.785Z,11.83
2019-04-19T09:00:25.609Z,12.17
2019-04-19T09:02:43.169Z,14.03
2019-04-19T09:05:14.506Z,14.30
2019-04-19T09:12:45.925Z,11.33
2019-04-19T09:15:10.825Z,14.33
2019-04-19T09:17:59.441Z,10.00
2019-04-19T09:22:36.808Z,8.83
2019-04-19T09:24:56.057Z,14.67
2019-04-19T09:27:39.565Z,12.33
2019-04-19T09:30:09.549Z,10.30
2019-04-19T09:32:20.612Z,14.47
2019-04-19T09:34:49.552Z,9.30
2019-04-19T09:37:18.346Z,10.67
2019-04-19T09:39:50.097Z,8.60
2019-04-19T09:42:16.867Z,8.67
2019-04-19T09:44:41.533Z,8.90
2019-04-19T09:47:05.576Z,9.10
2019-04-19T09:49:47.845Z,9.30
2019-04-19T09:52:27.863Z,8.90
2019-04-19T09:54:52.530Z,9.77
2019-04-19T09:57:16.455Z,8.77
2019-04-19T09:59:33.692Z,9.30
2019-04-19T10:02:00.650Z,8.47
2019-04-19T10:04:25.109Z,9.70
2019-04-19T10:06:53.388Z,8.77
2019-04-19T10:09:22.372Z,10.30
2019-04-19T10:11:48.744Z,9.03
2019-04-19T10:14:15.379Z,8.80
2019-04-19T10:17:05.463Z,8.60
2019-04-19T10:19:33.031Z,8.63
2019-04-19T10:22:06.830Z,9.57
2019-04-19T10:24:33.543Z,8.37
2019-04-19T10:27:09.093Z,8.80
2019-04-19T10:29:40.139Z,10.40
2019-04-19T10:32:15.073Z,11.20
2019-04-19T10:34:42.778Z,10.60
2019-04-19T10:37:10.820Z,9.13
2019-04-19T10:39:37.624Z,13.40
2019-04-19T10:42:06.199Z,10.47
2019-04-19T10:44:33.966Z,16.73
2019-04-19T10:47:01.060Z,12.53
2019-04-19T10:49:36.046Z,15.70
2019-04-19T10:52:07.396Z,10.93
2019-04-19T10:54:34.019Z,12.60
2019-04-19T10:57:08.217Z,18.50
2019-04-19T10:59:36.607Z,14.67
2019-04-19T11:02:04.135Z,12.80
2019-04-19T11:04:31.170Z,12.23
2019-04-19T11:06:59.837Z,10.00
2019-04-19T11:09:27.088Z,9.47
2019-04-19T11:11:55.255Z,8.90
2019-04-19T11:14:22.152Z,8.70
2019-04-19T11:16:49.364Z,9.23
2019-04-19T11:19:20.962Z,9.80
2019-04-19T11:21:45.551Z,9.20
2019-04-19T11:24:13.716Z,8.13
2019-04-19T11:26:41.109Z,8.97
2019-04-19T11:29:08.007Z,10.97
2019-04-19T11:31:49.904Z,8.90
2019-04-19T11:34:17.267Z,8.13
2019-04-19T11:36:44.136Z,9.07
2019-04-19T11:39:12.795Z,8.93
2019-04-19T11:41:39.560Z,8.43
2019-04-19T11:44:15.025Z,8.93
2019-04-19T11:46:35.822Z,8.90
2019-04-19T11:49:03.864Z,9.70
2019-04-19T11:51:32.014Z,9.10
2019-04-19T11:53:59.173Z,9.50
2019-04-19T11:56:50.632Z,10.80
2019-04-19T11:59:36.975Z,9.60
2019-04-19T12:02:04.009Z,9.00
2019-04-19T12:04:30.683Z,10.63
2019-04-19T12:06:58.572Z,12.97
2019-04-19T12:09:25.356Z,11.70
2019-04-19T12:11:51.955Z,11.50
2019-04-19T12:14:19.650Z,9.20
2019-04-19T12:16:47.379Z,10.10
2019-04-19T12:19:14.281Z,9.97
2019-04-19T12:21:41.294Z,9.17
2019-04-19T12:24:08.706Z,9.70
2019-04-19T12:26:35.694Z,8.70
2019-04-19T12:29:05.607Z,10.10
2019-04-19T12:31:31.684Z,8.30
2019-04-19T12:33:59.549Z,16.37
2019-04-19T12:36:26.351Z,10.20
2019-04-19T12:38:53.725Z,8.33
2019-04-19T12:41:21.696Z,8.53
2019-04-19T12:43:49.845Z,8.10
2019-04-19T12:46:16.982Z,8.93
2019-04-19T12:48:43.846Z,9.03
2019-04-19T12:51:12.118Z,9.10
2019-04-19T12:53:39.271Z,8.50
2019-04-19T12:56:06.354Z,9.53
2019-04-19T12:58:33.140Z,8.27
2019-04-19T13:01:28.429Z,11.90
2019-04-19T13:04:06.642Z,10.87
2019-04-19T13:06:35.768Z,9.03
2019-04-19T13:09:05.357Z,9.43
2019-04-19T13:11:32.856Z,8.30
2019-04-19T13:13:59.789Z,8.80
2019-04-19T13:16:26.660Z,7.80
2019-04-19T13:18:54.262Z,8.83
2019-04-19T13:21:21.975Z,9.97
2019-04-19T13:23:48.774Z,9.30
2019-04-19T13:26:15.505Z,8.10
2019-04-19T13:28:43.720Z,8.63
2019-04-19T13:31:12.773Z,8.13
2019-04-19T13:33:39.516Z,7.90
2019-04-19T13:36:11.123Z,9.80
2019-04-19T13:39:01.426Z,9.17
2019-04-19T13:41:54.712Z,8.90
2019-04-19T13:44:22.843Z,8.40
2019-04-19T13:46:50.758Z,11.70
2019-04-19T13:49:18.760Z,8.90
2019-04-19T13:51:45.611Z,9.13
2019-04-19T13:54:12.563Z,7.87
2019-04-19T13:56:40.593Z,10.17
2019-04-19T13:59:07.666Z,8.57
2019-04-19T14:01:34.535Z,8.13
2019-04-19T14:04:01.722Z,9.20
2019-04-19T14:06:28.721Z,8.40
2019-04-19T14:08:55.412Z,9.77
2019-04-19T14:11:22.030Z,8.60
2019-04-19T14:13:53.822Z,7.60
2019-04-19T14:16:18.695Z,8.67
2019-04-19T14:18:46.767Z,8.67
2019-04-19T14:21:14.810Z,8.93
2019-04-19T14:23:41.840Z,8.70
2019-04-19T14:26:09.636Z,8.70
2019-04-19T14:28:36.456Z,8.73
2019-04-19T14:31:04.980Z,7.87
2019-04-19T14:33:32.833Z,7.73
2019-04-19T14:35:59.859Z,8.47
2019-04-19T14:38:27.593Z,8.50
2019-04-19T14:40:55.435Z,9.23
2019-04-19T14:43:22.702Z,8.30
2019-04-19T14:45:50.696Z,8.87
2019-04-19T14:48:25.815Z,8.00
2019-04-19T14:50:52.981Z,8.37
2019-04-19T14:53:14.756Z,8.00
2019-04-19T14:55:41.444Z,8.33
2019-04-19T14:58:08.381Z,7.23
2019-04-19T15:00:35.209Z,8.03
2019-04-19T15:03:10.557Z,8.00
2019-04-19T15:05:39.649Z,8.87
2019-04-19T15:08:06.642Z,6.87
2019-04-19T15:10:33.544Z,8.20
2019-04-19T15:13:00.936Z,10.93
2019-04-19T15:15:29.102Z,10.10
2019-04-19T15:17:57.581Z,7.77
2019-04-19T15:20:24.759Z,7.70
2019-04-19T15:22:52.599Z,7.90
2019-04-19T15:25:21.673Z,8.80
2019-04-19T15:27:48.734Z,7.67
2019-04-19T15:30:17.009Z,7.90
2019-04-19T15:32:44.511Z,8.43
2019-04-19T15:35:14.260Z,9.80
2019-04-19T15:37:41.255Z,8.43
2019-04-19T15:40:09.820Z,8.90
2019-04-19T15:42:36.808Z,7.90
2019-04-19T15:45:05.018Z,7.50
2019-04-19T15:47:32.743Z,9.80
2019-04-19T15:49:59.976Z,8.40
2019-04-19T15:52:28.105Z,10.47
2019-04-19T15:54:56.234Z,10.53
2019-04-19T15:57:23.858Z,10.20
2019-04-19T15:59:51.813Z,9.10
2019-04-19T16:02:38.566Z,8.73
2019-04-19T16:05:26.423Z,9.00
2019-04-19T16:08:04.444Z,8.70
2019-04-19T16:10:36.870Z,9.10
2019-04-19T16:13:03.651Z,9.67
2019-04-19T16:15:30.328Z,9.73
2019-04-19T16:17:57.836Z,9.67
2019-04-19T16:20:25.201Z,9.60
2019-04-19T16:22:52.255Z,8.70
2019-04-19T16:25:19.134Z,9.10
2019-04-19T16:27:46.805Z,9.40
2019-04-19T16:30:14.811Z,9.30
2019-04-19T16:32:41.453Z,8.60
2019-04-19T16:35:09.888Z,8.67
2019-04-19T16:37:37.151Z,9.70
2019-04-19T16:40:10.301Z,9.97
2019-04-19T16:42:36.973Z,9.90
2019-04-19T16:45:05.958Z,10.37
2019-04-19T16:47:33.373Z,8.60
2019-04-19T16:50:00.633Z,9.00
2019-04-19T16:52:28.873Z,9.00
2019-04-19T16:54:58.775Z,8.20
2019-04-19T16:57:28.299Z,8.60
2019-04-19T16:59:52.760Z,9.30
2019-04-19T17:02:19.378Z,8.80
2019-04-19T17:04:46.079Z,8.00
2019-04-19T17:07:13.191Z,9.50
2019-04-19T17:09:42.691Z,9.50
2019-04-19T17:12:10.409Z,8.97
2019-04-19T17:14:37.174Z,8.40
2019-04-19T17:17:24.602Z,9.53
2019-04-19T17:19:55.612Z,8.17
2019-04-19T17:22:36.694Z,8.80
2019-04-19T17:25:05.293Z,7.90
2019-04-19T17:27:33.591Z,9.53
2019-04-19T17:30:02.093Z,8.20
2019-04-19T17:32:30.149Z,7.20
2019-04-19T17:34:58.036Z,6.90
2019-04-19T17:37:26.333Z,7.63
2019-04-19T17:39:53.094Z,6.30
2019-04-19T17:42:19.683Z,6.30
2019-04-19T17:44:47.322Z,6.67
2019-04-19T17:47:17.019Z,7.53
2019-04-19T17:49:45.363Z,7.50
2019-04-19T17:52:20.894Z,7.37
2019-04-19T17:54:55.857Z,6.87
2019-04-19T17:57:09.257Z,7.00
2019-04-19T17:59:36.373Z,7.00
2019-04-19T18:02:03.425Z,8.60
2019-04-19T18:04:30.597Z,6.80
2019-04-19T18:07:01.232Z,6.57
2019-04-19T18:09:26.400Z,7.50
2019-04-19T18:11:53.548Z,6.57
2019-04-19T18:14:20.375Z,6.67
2019-04-19T18:16:48.358Z,9.77
2019-04-19T18:19:23.276Z,5.70
2019-04-19T18:21:44.128Z,5.90
2019-04-19T18:24:20.089Z,7.00
2019-04-19T18:26:39.724Z,7.30
2019-04-19T18:29:07.675Z,7.73
2019-04-19T18:31:40.713Z,6.83
2019-04-19T18:34:09.626Z,5.80
2019-04-19T18:36:32.619Z,7.60
2019-04-19T18:39:00.264Z,8.60
2019-04-19T18:41:27.314Z,6.00
2019-04-19T18:44:04.650Z,7.40
2019-04-19T18:46:22.738Z,8.17
2019-04-19T18:48:49.619Z,7.80
2019-04-19T18:51:20.742Z,9.00
2019-04-19T18:53:58.247Z,6.77
2019-04-19T18:56:19.207Z,6.60
2019-04-19T18:58:43.998Z,11.63
2019-04-19T19:01:21.288Z,6.27
2019-04-19T19:03:43.122Z,8.60
2019-04-19T19:06:09.572Z,6.77
2019-04-19T19:08:47.283Z,6.70
2019-04-19T19:11:12.971Z,6.17
2019-04-19T19:13:36.146Z,5.57
2019-04-19T19:16:02.352Z,6.43
2019-04-19T19:18:35.076Z,7.23
2019-04-19T19:21:01.125Z,6.90
2019-04-19T19:23:43.198Z,6.10
2019-04-19T19:26:07.252Z,7.00
2019-04-19T19:28:24.926Z,7.30
2019-04-19T19:30:53.194Z,8.17
2019-04-19T19:33:23.821Z,9.20
2019-04-19T19:35:54.915Z,7.90
2019-04-19T19:38:25.497Z,9.70
2019-04-19T19:41:00.042Z,6.83
2019-04-19T19:43:34.062Z,8.23
2019-04-19T19:45:55.845Z,7.20
2019-04-19T19:48:28.546Z,8.00
2019-04-19T19:53:44.410Z,8.60
2019-04-19T19:56:07.341Z,9.53
2019-04-19T19:58:17.206Z,9.57
2019-04-19T20:00:56.729Z,12.37
2019-04-19T20:03:13.483Z,11.03
2019-04-19T20:05:36.472Z,7.70
2019-04-19T20:08:01.679Z,8.87
2019-04-19T20:10:36.107Z,10.20
2019-04-19T20:13:00.903Z,9.10
2019-04-19T20:15:28.917Z,7.70
2019-04-19T20:17:57.959Z,6.93
2019-04-19T20:20:30.940Z,7.10
2019-04-19T20:22:52.477Z,6.43
2019-04-19T20:25:32.474Z,5.77
2019-04-19T20:27:52.070Z,7.43
2019-04-19T20:30:17.430Z,11.23
2019-04-19T20:32:44.794Z,11.10
2019-04-19T20:35:17.615Z,8.63
2019-04-19T20:37:41.982Z,14.67
2019-04-19T20:40:15.602Z,8.63
2019-04-19T20:43:02.093Z,12.80
2019-04-19T20:45:16.547Z,11.40
2019-04-19T20:47:43.751Z,8.57
2019-04-19T20:50:17.336Z,7.10
2019-04-19T20:52:45.380Z,5.00
2019-04-19T20:55:25.097Z,6.37
2019-04-19T20:58:09.798Z,6.30
2019-04-19T21:00:35.027Z,7.40
2019-04-19T21:03:01.802Z,6.33
2019-04-19T21:05:34.711Z,7.13
2019-04-19T21:08:01.764Z,7.10
2019-04-19T21:10:25.796Z,9.70
2019-04-19T21:12:55.637Z,5.60
2019-04-19T21:15:28.087Z,7.13
2019-04-19T21:17:51.542Z,7.87
2019-04-19T21:20:23.930Z,7.70
2019-04-19T21:22:48.556Z,9.07
2019-04-19T21:25:19.923Z,6.70
2019-04-19T21:27:49.206Z,6.57
2019-04-19T21:30:14.707Z,6.03
2019-04-19T21:32:41.488Z,6.90
2019-04-19T21:35:12.240Z,5.73
2019-04-19T21:37:42.379Z,4.60
2019-04-19T21:40:06.297Z,6.57
2019-04-19T21:42:39.625Z,6.77
2019-04-19T21:45:03.519Z,9.00
2019-04-19T21:47:34.018Z,8.43
2019-04-19T21:50:01.201Z,7.97
2019-04-19T21:52:29.078Z,5.13
2019-04-19T21:55:10.360Z,10.17
2019-04-19T21:57:29.535Z,9.20
2019-04-19T21:59:54.235Z,7.10
2019-04-19T22:02:36.619Z,7.40
2019-04-19T22:04:57.410Z,5.87
2019-04-19T22:07:25.438Z,13.57
2019-04-19T22:09:58.499Z,6.40
2019-04-19T22:12:20.884Z,5.10
2019-04-19T22:14:48.582Z,7.50
2019-04-19T22:17:19.724Z,7.27
2019-04-19T22:19:44.175Z,10.53
2019-04-19T22:22:19.212Z,8.30
2019-04-19T22:24:41.043Z,8.83
2019-04-19T22:27:07.994Z,20.53
2019-04-19T22:29:35.701Z,6.27
2019-04-19T22:32:08.515Z,10.90
2019-04-19T22:34:32.646Z,8.10
2019-04-19T22:37:01.741Z,6.47
2019-04-19T22:39:28.100Z,7.67
2019-04-19T22:41:54.991Z,7.60
2019-04-19T22:44:22.830Z,6.43
2019-04-19T22:46:52.878Z,6.43
2019-04-19T22:49:19.897Z,7.63
2019-04-19T22:51:46.696Z,6.27
2019-04-19T22:54:14.819Z,9.20
2019-04-19T22:56:52.448Z,8.60
2019-04-19T22:59:16.151Z,8.47
2019-04-19T23:02:01.521Z,8.07
2019-04-19T23:04:26.565Z,9.27
2019-04-19T23:07:01.088Z,17.37
2019-04-19T23:09:23.171Z,14.07
2019-04-19T23:11:51.226Z,11.43
2019-04-19T23:14:41.458Z,8.87
2019-04-19T23:17:08.199Z,10.27
2019-04-19T23:19:39.252Z,7.17
2019-04-19T23:22:03.760Z,8.63
2019-04-19T23:24:31.211Z,8.30
2019-04-19T23:27:10.986Z,8.47
2019-04-19T23:29:30.756Z,6.90
2019-04-19T23:31:55.973Z,7.07
2019-04-19T23:34:25.186Z,5.70
2019-04-19T23:36:59.724Z,5.67
2019-04-19T23:39:21.202Z,6.50
2019-04-19T23:41:49.056Z,10.93
2019-04-19T23:44:19.494Z,9.73
2019-04-19T23:46:45.451Z,8.90
2019-04-19T23:49:14.568Z,10.17
2019-04-19T23:51:41.128Z,6.80
2019-04-19T23:54:15.104Z,7.17
2019-04-19T23:56:49.151Z,6.47
2019-04-19T23:59:12.882Z,7.60
